Time;durP1;ratioP1;P1;durP2;ratioP2;P2;SDS_P1;SDS_P2;PMS_P1;PMS_P2;Temp;Humidity;BMP_temperature;BMP_pressure;BME280_temperature;BME280_humidity;BME280_pressure;Samples;Min_cycle;Max_cycle;Signal;HPM_P1;HPM_P2
2023/12/13 00:01:33;;;;;;;2.55;0.90;;;;;;;-144.05;85.19;57001.75;5009922;28;20033;-84
2023/12/13 00:03:59;;;;;;;6.97;1.45;;;;;;;-144.05;84.35;56989.00;4996332;28;20026;-84
2023/12/13 00:06:25;;;;;;;3.38;1.00;;;;;;;-144.05;84.17;56982.66;4994290;28;20034;-85
2023/12/13 00:08:52;;;;;;;1.83;0.90;;;;;;;-144.05;83.81;57008.13;4994239;28;20033;-86
2023/12/13 00:11:19;;;;;;;1.67;1.00;;;;;;;-144.05;83.98;57003.88;4995690;28;20026;-85
2023/12/13 00:13:45;;;;;;;2.60;0.88;;;;;;;-144.05;84.34;57023.00;5006865;28;20049;-87
2023/12/13 00:16:18;;;;;;;1.83;1.15;;;;;;;-144.05;83.92;56997.50;5014167;28;20029;-85
2023/12/13 00:18:47;;;;;;;2.42;0.90;;;;;;;-144.05;84.12;56986.91;5014155;28;20026;-85
2023/12/13 00:21:15;;;;;;;2.80;0.90;;;;;;;-144.05;83.76;57014.50;5007092;28;20124;-88
2023/12/13 00:23:55;;;;;;;2.60;1.05;;;;;;;-144.05;83.45;56997.50;4995367;28;20030;-86
2023/12/13 00:26:23;;;;;;;2.90;1.30;;;;;;;-144.05;83.99;56991.13;4994497;28;20034;-84
2023/12/13 00:28:50;;;;;;;3.80;1.70;;;;;;;-144.05;84.34;57008.13;4994605;28;20026;-85
2023/12/13 00:31:19;;;;;;;1.45;0.68;;;;;;;-144.05;84.66;56984.78;5011969;28;20037;-85
2023/12/13 00:33:45;;;;;;;1.67;0.90;;;;;;;-144.05;84.49;57010.25;4991888;28;20034;-86
2023/12/13 00:36:12;;;;;;;2.97;1.27;;;;;;;-144.05;84.41;57010.25;4995859;28;20286;-86
2023/12/13 00:38:38;;;;;;;7.00;1.00;;;;;;;-144.05;84.27;56993.25;5011749;28;20045;-84
2023/12/13 00:41:05;;;;;;;3.53;1.10;;;;;;;-144.05;84.33;56995.38;5011659;28;20422;-81
2023/12/13 00:43:32;;;;;;;3.22;0.95;;;;;;;-144.05;84.91;57029.38;4994057;28;20530;-87
2023/12/13 00:45:58;;;;;;;3.03;1.13;;;;;;;-144.05;84.21;57014.50;5017240;28;20022;-86
2023/12/13 00:48:27;;;;;;;2.55;1.00;;;;;;;-144.05;84.16;56976.28;5017065;28;20031;-84
2023/12/13 00:50:55;;;;;;;3.50;1.10;;;;;;;-144.05;84.79;57023.00;4995276;28;20034;-84
2023/12/13 00:53:25;;;;;;;2.38;1.00;;;;;;;-144.05;84.77;57003.88;4993605;28;20037;-85
2023/12/13 00:55:53;;;;;;;5.05;1.17;;;;;;;-144.05;84.57;57023.00;4991908;28;20026;-84
2023/12/13 00:58:29;;;;;;;5.88;1.20;;;;;;;-144.05;84.55;57003.88;4991185;28;20033;-84
2023/12/13 01:01:00;;;;;;;3.08;1.10;;;;;;;-144.05;84.54;57014.50;4991248;28;20448;-84
2023/12/13 01:03:29;;;;;;;4.65;0.90;;;;;;;-144.05;84.52;57006.00;5007646;28;20038;-86
2023/12/13 01:05:58;;;;;;;6.82;1.23;;;;;;;-144.05;84.68;57016.63;4991381;28;20030;-86
2023/12/13 01:08:24;;;;;;;3.58;1.15;;;;;;;-144.05;85.17;56999.63;4990441;28;20034;-84
2023/12/13 01:10:56;;;;;;;2.47;1.10;;;;;;;-144.05;84.53;56991.13;5007684;28;20033;-87
2023/12/13 01:13:25;;;;;;;2.88;1.17;;;;;;;-144.05;84.96;56993.25;4991586;28;20401;-84
2023/12/13 01:16:01;;;;;;;;;;;;;;;;;;;;;
2023/12/13 01:18:42;;;;;;;4.82;0.90;;;;;;;-144.05;84.28;57025.13;5129987;27;20372;-82
2023/12/13 01:21:08;;;;;;;4.38;1.00;;;;;;;-144.05;84.22;56991.13;5126614;28;20051;-80
2023/12/13 01:23:35;;;;;;;9.00;1.65;;;;;;;-144.05;84.41;56999.63;5127044;28;20028;-80
2023/12/13 01:26:01;;;;;;;4.30;1.17;;;;;;;-144.05;83.64;56999.63;5117650;28;20052;-82
2023/12/13 01:28:27;;;;;;;4.00;1.20;;;;;;;-144.05;83.92;56986.91;5128365;28;20504;-80
2023/12/13 01:30:53;;;;;;;4.57;1.05;;;;;;;-144.05;83.85;57020.88;5117147;28;20028;-80
2023/12/13 01:33:20;;;;;;;2.58;0.90;;;;;;;-144.05;83.60;57014.50;5113487;28;20388;-79
2023/12/13 01:35:46;;;;;;;2.92;0.80;;;;;;;-144.05;82.97;56978.41;5114001;28;20066;-78
2023/12/13 01:38:12;;;;;;;3.63;1.00;;;;;;;-144.05;83.26;57008.13;5113779;28;20032;-78
2023/12/13 01:40:48;;;;;;;6.32;0.93;;;;;;;-144.05;82.63;57018.75;5112725;28;20063;-79
2023/12/13 01:43:22;;;;;;;;;;;;;;;-144.05;82.77;57027.25;5114551;28;20035;-78
2023/12/13 01:45:49;;;;;;;6.95;0.88;;;;;;;-144.05;82.74;56989.00;5113480;28;20021;-78
2023/12/13 01:48:16;;;;;;;4.28;1.10;;;;;;;-144.05;82.70;56995.38;5095185;28;20168;-79
2023/12/13 01:50:43;;;;;;;3.70;1.02;;;;;;;-144.05;82.32;57012.38;5097890;28;20031;-79
2023/12/13 01:53:11;;;;;;;2.80;0.93;;;;;;;-144.05;82.34;57016.63;5095535;28;20036;-80
2023/12/13 01:55:38;;;;;;;3.50;1.02;;;;;;;-144.05;82.66;57023.00;5120200;28;20035;-79
2023/12/13 01:58:04;;;;;;;4.45;1.08;;;;;;;-144.05;82.98;56997.50;5104203;28;20036;-80
2023/12/13 02:00:33;;;;;;;5.05;0.98;;;9.20;99.90;;;-144.05;82.62;57025.13;5122380;28;20036;-79
2023/12/13 02:03:00;;;;;;;4.18;1.17;;;;;;;-144.05;82.81;57048.50;5102299;28;20039;-79
2023/12/13 02:05:29;;;;;;;4.03;1.38;;;10.20;99.90;;;-144.05;83.74;57031.50;5118429;28;20034;-77
2023/12/13 02:07:55;;;;;;;8.32;1.33;;;;;;;-144.05;83.77;57008.13;5115729;28;20027;-79
2023/12/13 02:10:21;;;;;;;3.65;0.95;;;;;;;-144.05;83.04;57023.00;5118128;28;20028;-81
2023/12/13 02:12:48;;;;;;;3.47;1.27;;;;;;;-144.05;82.64;57018.75;5117901;28;20035;-80
2023/12/13 02:15:14;;;;;;;3.42;1.40;;;;;;;-144.05;82.95;57016.63;5099157;28;20024;-78
2023/12/13 02:17:52;;;;;;;7.68;1.52;;;;;;;-144.05;82.96;57003.88;5098071;28;20073;-78
2023/12/13 02:20:19;;;;;;;9.55;1.63;;;;;;;-144.05;83.66;57014.50;5117191;28;20117;-80
2023/12/13 02:22:46;;;;;;;4.65;1.23;;;;;;;-144.05;83.75;57020.88;5115227;28;20020;-79
2023/12/13 02:25:26;;;;;;;5.70;1.48;;;9.70;99.90;;;-144.05;83.79;57014.50;5105558;28;20024;-82
2023/12/13 02:27:52;;;;;;;5.22;1.35;;;;;;;-144.05;83.46;57010.25;5097045;28;20024;-80
2023/12/13 02:30:19;;;;;;;7.97;1.67;;;;;;;-144.05;84.07;56978.41;5104333;28;20028;-81
2023/12/13 02:32:46;;;;;;;3.83;1.30;;;;;;;-144.05;83.84;57008.13;5076209;28;20032;-78
2023/12/13 02:35:12;;;;;;;4.68;1.42;;;;;;;-144.05;83.81;56999.63;5102607;28;20493;-80
2023/12/13 02:37:38;;;;;;;4.32;1.35;;;;;;;-144.05;83.81;57008.13;5084702;28;20028;-80
2023/12/13 02:40:06;;;;;;;9.95;1.63;;;;;;;-144.05;84.32;56999.63;5102002;28;20039;-79
2023/12/13 02:42:32;;;;;;;6.00;1.50;;;;;;;-144.05;84.54;56991.13;5102839;28;20035;-78
2023/12/13 02:44:58;;;;;;;9.57;1.70;;;;;;;-144.05;84.51;56991.13;5095106;28;20024;-80
2023/12/13 02:47:25;;;;;;;5.53;1.80;;;;;;;-144.05;84.99;56989.00;5091687;28;20319;-80
2023/12/13 02:49:52;;;;;;;6.65;1.80;;;;;;;-144.05;85.14;57003.88;5106650;28;20082;-80
2023/12/13 02:52:18;;;;;;;3.78;1.83;;;;;;;-144.05;84.80;57003.88;5087682;28;20039;-81
2023/12/13 02:54:44;;;;;;;7.53;1.95;;;;;;;-144.05;85.28;56989.00;5103188;28;20024;-81
2023/12/13 02:57:10;;;;;;;7.13;1.58;;;;;;;-144.05;85.42;56993.25;5101530;28;20035;-81
2023/12/13 02:59:37;;;;;;;7.43;1.77;;;;;;;-144.05;85.40;57006.00;5084604;28;20032;-80
2023/12/13 03:02:03;;;;;;;6.22;1.80;;;;;;;-144.05;85.27;57003.88;5082387;28;20095;-78
2023/12/13 03:04:29;;;;;;;4.97;1.60;;;;;;;-144.05;85.26;56976.28;5098455;28;20039;-81
2023/12/13 03:06:55;;;;;;;5.53;1.58;;;;;;;-144.05;84.99;56995.38;5096687;28;20036;-78
2023/12/13 03:09:21;;;;;;;4.18;1.60;;;;;;;-144.05;85.28;56972.03;5098368;28;20404;-79
2023/12/13 03:11:48;;;;;;;8.90;1.88;;;;;;;-144.05;84.97;57016.63;5098665;28;20052;-79
2023/12/13 03:14:14;;;;;;;5.43;2.13;;;;;;;-144.05;85.34;56999.63;5098622;28;20031;-79
2023/12/13 03:16:40;;;;;;;3.85;2.10;;;;;;;-144.05;85.21;57003.88;5098180;28;20043;-78
2023/12/13 03:19:06;;;;;;;4.25;1.70;;;;;;;-144.05;85.71;56957.16;5078461;28;20028;-80
2023/12/13 03:21:33;;;;;;;8.05;2.10;;;;;;;-144.05;86.14;57001.75;5097556;28;20032;-79
2023/12/13 03:23:59;;;;;;;5.05;2.10;;;;;;;-144.05;86.39;57031.50;5081352;28;20066;-80
2023/12/13 03:26:25;;;;;;;4.22;1.75;;;;;;;-144.05;86.57;57001.75;5103238;28;20021;-80
2023/12/13 03:28:51;;;;;;;4.38;1.80;;;;;;;-144.05;86.30;56991.13;5079100;28;20024;-79
2023/12/13 03:31:17;;;;;;;7.72;1.95;;;;;;;-144.05;86.40;57018.75;5096902;28;20051;-82
2023/12/13 03:33:43;;;;;;;7.20;1.77;;;;;;;-144.05;86.14;56967.78;5095599;28;20028;-81
2023/12/13 03:36:17;;;;;;;7.22;2.78;;;12.50;99.90;;;-144.05;86.25;57008.13;5077230;28;20515;-79
2023/12/13 03:38:46;;;;;;;6.55;1.70;;;8.20;99.90;;;-144.05;86.38;57006.00;5095561;28;20039;-80
2023/12/13 03:41:13;;;;;;;6.72;2.00;;;;;;;-144.05;86.52;57014.50;5094611;28;20575;-80
2023/12/13 03:43:41;;;;;;;10.00;1.90;;;7.80;99.90;;;-144.05;86.81;57008.13;5094455;28;20036;-81
2023/12/13 03:46:08;;;;;;;5.75;1.83;;;;;;;-144.05;86.95;56995.38;5093155;28;20093;-79
2023/12/13 03:48:34;;;;;;;6.07;2.00;;;;;;;-144.05;86.92;57001.75;5094764;28;20031;-79
2023/12/13 03:51:01;;;;;;;9.80;2.42;;;;;;;-144.05;87.37;57006.00;5094385;28;20020;-80
2023/12/13 03:53:28;;;;;;;8.00;2.20;;;;;;;-144.05;87.99;57010.25;5095557;28;20039;-80
2023/12/13 03:55:54;;;;;;;8.35;2.50;;;;;;;-144.05;87.91;57006.00;5094763;28;20027;-77
2023/12/13 03:58:20;;;;;;;6.55;2.13;;;;;;;-144.05;87.48;57016.63;5093548;28;20385;-79
2023/12/13 04:00:47;;;;;;;8.02;2.22;;;;;;;-144.05;87.54;56986.91;5076832;28;20050;-79
2023/12/13 04:03:13;;;;;;;8.70;2.72;;;;;;;-144.05;87.55;56995.38;5096035;28;20027;-81
2023/12/13 04:05:39;;;;;;;7.63;2.40;;;;;;;-144.05;87.46;57023.00;5095123;28;20389;-79
2023/12/13 04:08:06;;;;;;;8.90;2.67;;;;;;;-144.05;87.34;56997.50;5076669;28;20035;-81
2023/12/13 04:10:32;;;;;;;8.27;3.03;;;;;;;-144.05;87.97;57008.13;5095363;28;20032;-82
2023/12/13 04:12:59;;;;;;;15.90;2.28;;;;;;;-144.05;88.66;56997.50;5096242;28;20032;-82
2023/12/13 04:15:25;;;;;;;7.53;1.70;;;;;;;-144.05;88.13;56989.00;5094046;28;20055;-80
2023/12/13 04:17:52;;;;;;;12.25;2.30;;;;;;;-144.05;87.85;56995.38;5096100;28;20028;-80
2023/12/13 04:20:18;;;;;;;9.63;2.33;;;;;;;-144.05;88.46;56999.63;5095424;28;20088;-80
2023/12/13 04:22:45;;;;;;;7.28;2.58;;;7.90;99.90;;;-144.05;89.19;57016.63;5093861;28;20035;-79
2023/12/13 04:25:11;;;;;;;9.10;2.58;;;;;;;-144.05;88.76;57001.75;5096233;28;20044;-79
2023/12/13 04:27:38;;;;;;;12.13;2.35;;;;;;;-144.05;89.03;57001.75;5093732;28;20035;-79
2023/12/13 04:30:05;;;;;;;6.40;2.20;;;;;;;-144.05;88.95;56995.38;5079974;28;20023;-81
2023/12/13 04:32:31;;;;;;;11.70;2.90;;;;;;;-144.05;89.13;57010.25;5078335;28;20468;-81
2023/12/13 04:34:58;;;;;;;10.82;2.72;;;;;;;-144.05;88.90;57012.38;5080692;28;20054;-80
2023/12/13 04:37:24;;;;;;;7.78;2.90;;;;;;;-144.05;88.33;57003.88;5101227;28;20073;-78
2023/12/13 04:39:51;;;;;;;6.47;3.22;;;;;;;-144.05;88.35;57010.25;5082595;28;20038;-80
2023/12/13 04:42:17;;;;;;;8.25;2.28;;;;;;;-144.05;87.73;57003.88;5080412;28;20027;-80
2023/12/13 04:44:43;;;;;;;8.23;2.22;;;;;;;-144.05;87.65;56989.00;5079497;28;20024;-81
2023/12/13 04:47:09;;;;;;;8.23;2.08;;;;;;;-144.05;87.90;56997.50;5078029;28;20028;-77
2023/12/13 04:49:37;;;;;;;6.18;1.95;;;;;;;-144.05;88.33;57008.13;5098572;28;20066;-80
2023/12/13 04:52:03;;;;;;;10.00;3.78;;;;;;;-144.05;88.38;57001.75;5090113;28;20039;-76
2023/12/13 04:54:30;;;;;;;13.73;2.85;;;;;;;-144.05;88.18;56997.50;5093453;28;20067;-78
2023/12/13 04:56:56;;;;;;;15.80;3.20;;;;;;;-144.05;88.76;57010.25;5095267;28;20118;-75
2023/12/13 04:59:23;;;;;;;8.23;2.30;;;;;;;-144.05;88.23;57016.63;5093992;28;20028;-75
2023/12/13 05:01:49;;;;;;;8.43;1.98;;;;;;;-144.05;88.26;56993.25;5094667;28;20050;-80
2023/12/13 05:04:16;;;;;;;10.77;2.63;;;;;;;-144.05;88.46;57016.63;5094512;28;20111;-80
2023/12/13 05:06:42;;;;;;;8.82;2.10;;;;;;;-144.05;88.05;57003.88;5098910;28;20046;-81
2023/12/13 05:09:08;;;;;;;12.82;2.58;;;;;;;-144.05;87.85;56993.25;5081673;28;20110;-81
2023/12/13 05:11:34;;;;;;;7.47;1.90;;;;;;;-144.05;88.30;56997.50;5101859;28;20028;-81
2023/12/13 05:14:00;;;;;;;6.38;2.20;;;;;;;-144.05;87.80;57001.75;5101234;28;20056;-81
2023/12/13 05:16:27;;;;;;;6.97;2.03;;;;;;;-144.05;87.64;56999.63;5082472;28;20024;-81
2023/12/13 05:18:53;;;;;;;13.90;2.83;;;;;;;-144.05;87.95;57010.25;5100702;28;20088;-81
2023/12/13 05:21:19;;;;;;;5.90;1.85;;;;;;;-144.05;89.06;57012.38;5084229;28;20500;-81
2023/12/13 05:23:45;;;;;;;3.90;2.00;;;;;;;-144.05;88.45;57012.38;5102169;28;20067;-80
2023/12/13 05:26:11;;;;;;;9.70;2.50;;;;;;;-144.05;88.60;56980.53;5106889;28;20286;-81
2023/12/13 05:28:38;;;;;;;9.20;2.15;;;;;;;-144.05;88.26;56989.00;5103999;28;20051;-78
2023/12/13 05:31:04;;;;;;;8.98;2.30;;;;;;;-144.05;87.53;57001.75;5104425;28;20031;-79
2023/12/13 05:33:31;;;;;;;8.15;2.15;;;;;;;-144.05;88.07;57003.88;5101870;28;20032;-82
2023/12/13 05:35:57;;;;;;;6.55;2.20;;;;;;;-144.05;88.07;57029.38;5100476;28;20036;-82
2023/12/13 05:38:23;;;;;;;9.65;2.00;;;;;;;-144.05;87.97;56989.00;5083078;28;20047;-80
2023/12/13 05:40:49;;;;;;;7.95;2.47;;;;;;;-144.05;88.13;57016.63;5100879;28;20131;-79
2023/12/13 05:43:15;;;;;;;8.27;2.20;;;;;;;-144.05;87.53;56978.41;5099800;28;20323;-81
2023/12/13 05:45:42;;;;;;;8.35;2.40;;;;;;;-144.05;88.68;56991.13;5099042;28;20042;-83
2023/12/13 05:48:08;;;;;;;11.23;2.58;;;;;;;-144.05;88.52;57016.63;5101415;28;20020;-82
2023/12/13 05:50:34;;;;;;;8.38;2.58;;;;;;;-144.05;87.40;56995.38;5100509;28;20133;-81
2023/12/13 05:53:00;;;;;;;3.63;2.50;;;;;;;-144.05;87.54;56974.16;5100933;28;20723;-80
2023/12/13 05:55:26;;;;;;;8.45;2.58;;;;;;;-144.05;87.72;56993.25;5099561;28;20039;-81
2023/12/13 05:57:54;;;;;;;8.52;1.98;;;;;;;-144.05;87.92;56997.50;5099236;28;20046;-82
2023/12/13 06:00:20;;;;;;;7.45;2.55;;;;;;;-144.05;87.95;57014.50;5099618;28;20504;-82
2023/12/13 06:02:46;;;;;;;7.65;2.55;;;;;;;-144.05;88.13;57020.88;5101455;28;20043;-81
2023/12/13 06:05:14;;;;;;;6.93;2.30;;;;;;;-144.05;87.71;56997.50;5105569;28;20567;-80
2023/12/13 06:07:40;;;;;;;12.73;3.58;;;;;;;-144.05;87.85;56997.50;5105238;28;20095;-81
2023/12/13 06:10:07;;;;;;;10.05;2.53;;;;;;;-144.05;88.10;57018.75;5106033;28;20020;-81
2023/12/13 06:12:34;;;;;;;15.00;3.65;;;;;;;-144.05;87.81;57018.75;5105374;28;20066;-80
2023/12/13 06:15:00;;;;;;;11.00;2.55;;;;;;;-144.05;87.73;56991.13;5106229;28;20042;-81
2023/12/13 06:17:26;;;;;;;12.20;2.45;;;;;;;-144.05;87.58;56982.66;5106028;28;20058;-82
2023/12/13 06:19:52;;;;;;;14.77;3.10;;;;;;;-144.05;88.25;57010.25;5104279;28;20060;-82
2023/12/13 06:22:18;;;;;;;10.52;2.92;;;;;;;-144.05;88.23;57012.38;5107061;28;20036;-79
2023/12/13 06:24:45;;;;;;;6.97;2.70;;;;;;;-144.05;87.57;57006.00;5095171;28;20020;-81
2023/12/13 06:27:11;;;;;;;7.55;2.58;;;;;;;-144.05;87.27;57008.13;5088263;28;20035;-81
2023/12/13 06:29:37;;;;;;;12.38;2.78;;;;;;;-144.05;87.80;57029.38;5100821;28;20061;-82
2023/12/13 06:32:04;;;;;;;8.77;2.90;;;;;;;-144.05;87.70;56980.53;5105881;28;20522;-81
2023/12/13 06:34:30;;;;;;;5.95;2.17;;;;;;;-144.05;87.43;57020.88;5105980;28;20032;-79
2023/12/13 06:36:56;;;;;;;9.35;2.72;;;;;;;-144.05;87.87;57008.13;5087950;28;20031;-79
2023/12/13 06:39:22;;;;;;;9.40;2.45;;;;;;;-144.05;87.90;56989.00;5104719;28;20067;-83
2023/12/13 06:41:49;;;;;;;12.55;3.47;;;;;;;-144.05;87.17;56993.25;5086558;28;20073;-80
2023/12/13 06:44:16;;;;;;;13.07;3.53;;;;;;;-144.05;87.45;56984.78;5104322;28;20028;-79
2023/12/13 06:46:42;;;;;;;6.90;2.70;;;;;;;-144.05;87.43;56986.91;5107904;28;20028;-79
2023/12/13 06:49:09;;;;;;;9.32;2.65;;;;;;;-144.05;87.60;56989.00;5106293;28;20020;-80
2023/12/13 06:51:36;;;;;;;14.52;3.83;;;;;;;-144.05;87.82;57010.25;5106650;28;20028;-81
2023/12/13 06:54:03;;;;;;;10.27;2.95;;;;;;;-144.05;87.64;56993.25;5107063;28;20047;-79
2023/12/13 06:56:29;;;;;;;11.23;2.97;;;;;;;-144.05;87.71;57035.75;5098284;28;20123;-79
2023/12/13 06:58:55;;;;;;;9.65;2.67;;;;;;;-144.05;87.17;57008.13;5097593;28;20020;-80
2023/12/13 07:01:22;;;;;;;9.65;2.78;;;;;;;-144.05;86.50;57035.75;5097238;28;20221;-82
2023/12/13 07:03:48;;;;;;;10.93;3.10;;;;;;;-144.05;86.24;56976.28;5097611;28;20028;-79
2023/12/13 07:06:16;;;;;;;9.75;2.83;;;;;;;-144.05;86.90;57023.00;5101201;28;20103;-79
2023/12/13 07:08:42;;;;;;;9.30;3.53;;;10.50;99.90;;;-144.05;86.67;57016.63;5082135;28;20039;-79
2023/12/13 07:11:09;;;;;;;7.85;2.45;;;;;;;-144.05;86.80;57006.00;5098907;28;20500;-78
2023/12/13 07:13:35;;;;;;;10.50;2.65;;;;;;;-144.05;86.47;56999.63;5099792;28;20073;-79
2023/12/13 07:16:01;;;;;;;10.10;2.53;;;;;;;-144.05;86.67;56984.78;5098434;28;20059;-82
2023/12/13 07:18:27;;;;;;;6.60;2.50;;;;;;;-144.05;86.56;57008.13;5099002;28;20052;-80
2023/12/13 07:20:53;;;;;;;10.27;2.85;;;;;;;-144.05;86.39;57031.50;5079279;28;20031;-79
2023/12/13 07:23:20;;;;;;;6.43;2.60;;;;;;;-144.05;86.39;56984.78;5097987;28;20111;-78
2023/12/13 07:25:46;;;;;;;9.15;2.63;;;;;;;-144.05;86.72;56986.91;5105498;28;20492;-80
2023/12/13 07:28:13;;;;;;;9.85;2.83;;;;;;;-144.05;86.70;57031.50;5093497;28;20039;-80
2023/12/13 07:30:41;;;;;;;9.07;3.33;;;;;;;-144.05;86.77;56972.03;5090763;22;20087;-84
2023/12/13 07:33:09;;;;;;;9.50;3.05;;;;;;;-144.05;86.86;56997.50;5032648;28;20030;-78
2023/12/13 07:35:35;;;;;;;11.88;3.10;;;;;;;-144.05;86.91;57029.38;5024906;28;20127;-82
2023/12/13 07:38:03;;;;;;;8.88;2.92;;;;;;;-144.05;86.84;56999.63;5045708;28;20029;-84
2023/12/13 07:40:30;;;;;;;8.77;2.92;;;;;;;-144.05;86.64;57006.00;5044293;28;20123;-84
2023/12/13 07:42:56;;;;;;;10.98;2.80;;;;;;;-144.05;86.70;56980.53;5054246;28;20612;-84
2023/12/13 07:45:22;;;;;;;8.50;2.75;;;;;;;-144.05;86.67;56997.50;5035966;28;20089;-83
2023/12/13 07:47:49;;;;;;;13.18;2.97;;;;;;;-144.05;86.69;56980.53;5053885;28;20774;-85
2023/12/13 07:50:16;;;;;;;8.20;2.78;;;;;;;-144.05;86.67;57025.13;5031806;28;20044;-81
2023/12/13 07:52:42;;;;;;;9.82;2.92;;;;;;;-144.05;86.41;57001.75;5050741;28;20482;-83
2023/12/13 07:55:08;;;;;;;11.48;2.78;;;;;;;-144.05;86.39;57012.38;5053363;28;20112;-83
2023/12/13 07:57:34;;;;;;;8.38;3.03;;;;;;;-144.05;86.57;56984.78;5036573;28;20029;-83
2023/12/13 08:00:01;;;;;;;8.27;2.72;;;;;;;-144.05;86.24;57003.88;5055409;28;20029;-82
2023/12/13 08:02:27;;;;;;;11.68;3.25;;;;;;;-144.05;86.47;57014.50;5053049;28;20029;-81
2023/12/13 08:04:53;;;;;;;10.30;2.78;;;;;;;-144.05;85.94;57020.88;5053259;28;20439;-82
2023/12/13 08:07:19;;;;;;;9.35;2.60;;;;;;;-144.05;85.84;56984.78;5035377;28;20028;-81
2023/12/13 08:09:46;;;;;;;7.00;2.83;;;;;;;-144.05;85.76;57027.25;5052637;28;20032;-79
2023/12/13 08:12:12;;;;;;;10.00;2.83;;;;;;;-144.05;85.95;57025.13;5034658;28;20048;-81
2023/12/13 08:14:38;;;;;;;15.70;3.40;;;;;;;-144.05;85.45;56976.28;5049209;28;20379;-80
2023/12/13 08:17:08;;;;;;;12.70;2.63;;;;;;;-144.05;84.81;57006.00;5054707;28;20020;-84
2023/12/13 08:19:35;;;;;;;8.23;2.85;;;;;;;-144.05;83.72;57010.25;5055549;28;20033;-81
2023/12/13 08:22:03;;;;;;;7.63;2.35;;;;;;;-144.05;83.94;56963.53;5053256;28;20453;-83
2023/12/13 08:24:29;;;;;;;7.80;3.08;;;;;;;-144.05;83.66;57001.75;5052763;28;20036;-81
2023/12/13 08:26:56;;;;;;;10.00;2.70;;;;;;;-144.05;82.92;57006.00;5053371;28;20311;-82
2023/12/13 08:29:22;;;;;;;11.73;2.83;;;;;;;-144.05;82.36;56999.63;5040013;28;20114;-85
2023/12/13 08:31:48;;;;;;;7.40;2.35;;;;;;;-144.05;82.17;56982.66;5042171;28;20339;-81
2023/12/13 08:34:15;;;;;;;10.38;2.83;;;;;;;-144.05;82.66;56976.28;5057311;28;20079;-81
2023/12/13 08:36:42;;;;;;;9.43;2.45;;;;;;;-144.05;82.81;57006.00;5034696;28;20036;-82
2023/12/13 08:39:09;;;;;;;11.85;2.88;;;;;;;-144.05;83.93;57008.13;5055836;28;20025;-83
2023/12/13 08:41:35;;;;;;;9.85;2.40;;;;;;;-144.05;83.29;56995.38;5039135;28;20025;-85
2023/12/13 08:44:02;;;;;;;14.52;2.15;;;;;;;-144.05;82.74;57001.75;5044938;28;20035;-78
2023/12/13 08:46:29;;;;;;;11.23;2.38;;;;;;;-144.05;83.04;56984.78;5069544;28;20505;-82
2023/12/13 08:48:55;;;;;;;14.38;2.65;;;;;;;-144.05;82.81;56999.63;5046483;28;20044;-79
2023/12/13 08:51:21;;;;;;;7.68;3.15;;;;;;;-144.05;82.58;56999.63;5058406;28;20039;-83
2023/12/13 08:53:49;;;;;;;7.97;2.10;;;;;;;-144.05;82.72;57003.88;5053640;28;20116;-81
2023/12/13 08:56:15;;;;;;;8.85;2.40;;;;;;;-144.05;82.92;57003.88;5053710;28;20029;-81
2023/12/13 08:58:41;;;;;;;7.97;2.30;;;;;;;-144.05;82.99;56984.78;5053859;28;20108;-83
2023/12/13 09:01:08;;;;;;;8.98;1.88;;;;;;;-144.05;82.51;57018.75;5036450;28;20025;-81
2023/12/13 09:03:34;;;;;;;7.55;2.67;;;;;;;-144.05;82.60;56986.91;5054233;28;20183;-83
2023/12/13 09:06:01;;;;;;;6.88;2.30;;;;;;;-144.05;82.16;57003.88;5053793;28;20036;-82
2023/12/13 09:08:27;;;;;;;6.68;2.00;;;;;;;-144.05;82.29;56993.25;5053975;28;20060;-81
2023/12/13 09:10:54;;;;;;;11.57;2.30;;;;;;;-144.05;81.96;57020.88;5037028;28;20037;-82
2023/12/13 09:13:20;;;;;;;10.85;2.28;;;;;;;-144.05;82.57;57008.13;5021810;28;20415;-82
2023/12/13 09:15:46;;;;;;;8.60;1.98;;;;;;;-144.05;82.53;57027.25;5051728;28;20448;-82
2023/12/13 09:18:12;;;;;;;8.60;2.45;;;;;;;-144.05;82.59;57027.25;5053893;28;20047;-83
2023/12/13 09:20:40;;;;;;;6.65;2.60;;;;;;;-144.05;83.24;57001.75;5052627;28;20033;-82
2023/12/13 09:23:07;;;;;;;8.55;2.28;;;;;;;-144.05;83.52;57027.25;5036033;28;20028;-83
2023/12/13 09:25:33;;;;;;;10.98;2.50;;;;;;;-144.05;82.91;57006.00;5035909;28;20064;-81
2023/12/13 09:28:00;;;;;;;11.65;2.15;;;;;;;-144.05;82.76;57001.75;5053624;28;20029;-81
2023/12/13 09:30:26;;;;;;;8.07;2.75;;;;;;;-144.05;82.83;56989.00;5035469;28;20024;-82
2023/12/13 09:32:52;;;;;;;6.68;2.28;;;;;;;-144.05;83.15;56999.63;5053627;28;20056;-82
2023/12/13 09:35:18;;;;;;;7.05;1.95;;;;;;;-144.05;83.05;56984.78;5053553;28;20480;-81
2023/12/13 09:37:45;;;;;;;11.07;3.08;;;;;;;-144.05;82.43;56995.38;5053523;28;20040;-79
2023/12/13 09:40:15;;;;;;;8.77;2.42;;;9.50;99.90;;;-144.05;83.02;57010.25;5057084;28;20142;-83
2023/12/13 09:42:45;;;;;;;9.50;2.30;;;9.20;99.90;;;-144.05;82.62;56997.50;5047798;28;20057;-80
2023/12/13 09:45:18;;;;;;;10.48;2.78;;;;;;;-144.05;82.65;56984.78;5060809;28;20103;-83
2023/12/13 09:47:45;;;;;;;10.45;2.40;;;9.20;99.90;;;-144.05;82.24;57010.25;5071235;28;20057;-81
2023/12/13 09:50:12;;;;;;;7.30;1.95;;;;;;;-144.05;81.87;56997.50;5071647;28;20108;-83
2023/12/13 09:52:40;;;;;;;11.27;1.80;;;9.50;99.90;;;-144.05;81.94;57020.88;5060862;28;20036;-82
2023/12/13 09:55:08;;;;;;;8.02;1.88;;;9.80;99.90;;;-144.05;81.78;57020.88;5058719;28;20029;-85
2023/12/13 09:57:35;;;;;;;6.97;1.80;;;;;;;-144.05;81.46;56993.25;5041021;28;20394;-82
2023/12/13 10:00:01;;;;;;;4.32;1.73;;;;;;;-144.05;81.20;56999.63;5037461;28;20056;-82
2023/12/13 10:02:27;;;;;;;6.45;2.10;;;;;;;-144.05;80.50;56993.25;5022910;28;20025;-81
2023/12/13 10:04:57;;;;;;;8.02;1.48;;;;;;;-144.05;80.72;56976.28;5055357;28;20108;-81
2023/12/13 10:07:23;;;;;;;7.38;2.33;;;;;;;-144.05;80.66;57001.75;5056595;28;20068;-81
2023/12/13 10:09:50;;;;;;;8.65;1.90;;;;;;;-144.05;80.66;56997.50;5057043;28;20466;-81
2023/12/13 10:12:16;;;;;;;12.50;1.98;;;;;;;-144.05;79.69;56963.53;5058154;28;20063;-82
2023/12/13 10:14:45;;;;;;;10.15;2.15;;;;;;;-144.05;79.15;57014.50;5066303;28;20059;-81
2023/12/13 10:17:11;;;;;;;6.72;1.60;;;;;;;-144.05;79.72;57016.63;5060926;28;20025;-82
2023/12/13 10:19:38;;;;;;;6.72;1.70;;;;;;;-144.05;78.88;56986.91;5056903;28;20064;-81
2023/12/13 10:22:08;;;;;;;6.18;1.80;;;;;;;-144.05;78.82;56986.91;5056686;28;20039;-80
2023/12/13 10:24:34;;;;;;;11.32;2.08;;;;;;;-144.05;78.90;56989.00;5056845;28;20184;-80
2023/12/13 10:27:00;;;;;;;8.10;2.50;;;;;;;-144.05;78.90;56989.00;5055775;28;20088;-80
2023/12/13 10:29:27;;;;;;;6.03;1.92;;;9.40;99.90;;;-144.05;78.41;56972.03;5055906;28;20033;-80
2023/12/13 10:31:56;;;;;;;7.13;1.63;;;;;;;-144.05;78.22;56978.41;5056076;28;20032;-82
2023/12/13 10:34:22;;;;;;;8.25;2.00;;;;;;;-144.05;77.91;57003.88;5037930;28;20475;-80
2023/12/13 10:36:49;;;;;;;11.10;2.45;;;9.70;99.90;;;-144.05;78.28;56995.38;5055474;28;20033;-79
2023/12/13 10:39:18;;;;;;;9.75;1.67;;;;;;;-144.05;78.10;56986.91;5055245;28;20033;-80
2023/12/13 10:41:50;;;;;;;6.38;1.58;;;11.10;99.90;;;-144.05;78.35;57020.88;5055196;28;20557;-81
2023/12/13 10:44:21;;;;;;;8.60;1.85;;;;;;;-144.05;78.65;56989.00;5055533;28;20389;-82
2023/12/13 10:46:56;;;;;;;14.32;2.17;;;;;;;-144.05;78.82;56976.28;5037241;28;20051;-83
2023/12/13 10:49:24;;;;;;;7.43;2.25;;;;;;;-144.05;78.61;56978.41;5022412;28;20052;-82
2023/12/13 10:51:52;;;;;;;7.30;1.98;;;;;;;-144.05;78.42;56982.66;5054484;28;20033;-83
2023/12/13 10:54:20;;;;;;;5.47;2.10;;;9.60;99.90;;;-144.05;78.45;57033.63;5057264;28;20071;-77
2023/12/13 10:56:48;;;;;;;9.50;1.85;;;;;;;-144.05;78.06;57003.88;5039172;28;20033;-83
2023/12/13 10:59:17;;;;;;;9.10;2.13;;;10.10;99.90;;;-144.05;78.21;56989.00;5057696;28;20025;-82
2023/12/13 11:01:45;;;;;;;9.43;3.05;;;;;;;-144.05;78.07;57029.38;5057268;28;20112;-80
2023/12/13 11:04:13;;;;;;;4.70;1.70;;;10.50;99.90;;;-144.05;77.68;57003.88;5058834;28;20025;-80
2023/12/13 11:06:45;;;;;;;6.45;1.73;;;9.20;99.90;;;-144.05;77.19;56982.66;5039479;28;20574;-79
2023/12/13 11:09:14;;;;;;;7.93;1.70;;;10.20;99.90;;;-144.05;77.26;56986.91;5036241;28;20021;-79
2023/12/13 11:11:44;;;;;;;11.00;2.30;;;;;;;-144.05;76.38;56980.53;5055317;28;20075;-82